createdAt,value
2023-03-03T00:02:03.315Z,29.85
2023-03-03T00:06:11.389Z,31.60
2023-03-03T00:10:16.032Z,30.60
2023-03-03T00:18:27.417Z,29.90
2023-03-03T00:22:33.632Z,32.58
2023-03-03T00:26:41.648Z,35.30
2023-03-03T00:30:45.085Z,36.90
2023-03-03T00:34:48.652Z,34.13
2023-03-03T00:38:53.991Z,29.38
2023-03-03T00:42:58.041Z,31.77
2023-03-03T00:47:05.076Z,29.88
2023-03-03T00:51:20.891Z,29.77
2023-03-03T00:55:25.935Z,27.13
2023-03-03T00:59:29.761Z,28.35
2023-03-03T01:03:33.083Z,31.27
2023-03-03T01:07:36.684Z,28.70
2023-03-03T01:11:41.801Z,28.83
2023-03-03T01:15:48.348Z,30.60
2023-03-03T01:19:52.181Z,35.65
2023-03-03T01:23:55.757Z,35.30
2023-03-03T01:28:02.840Z,33.17
2023-03-03T01:32:06.632Z,27.60
2023-03-03T01:36:10.485Z,29.50
2023-03-03T01:40:17.611Z,24.00
2023-03-03T01:44:22.840Z,32.20
2023-03-03T01:48:30.581Z,25.85
2023-03-03T01:52:36.114Z,37.45
2023-03-03T01:56:39.348Z,26.95
2023-03-03T02:00:46.829Z,22.45
2023-03-03T02:04:51.200Z,25.73
2023-03-03T02:08:58.603Z,24.95
2023-03-03T02:13:02.384Z,26.33
2023-03-03T02:17:07.766Z,24.27
2023-03-03T02:21:13.583Z,25.23
2023-03-03T02:25:21.873Z,28.45
2023-03-03T02:29:27.033Z,23.83
2023-03-03T02:33:31.020Z,22.63
2023-03-03T02:37:34.232Z,26.17
2023-03-03T02:41:41.197Z,23.85
2023-03-03T02:45:47.231Z,20.42
2023-03-03T02:49:50.656Z,24.90
2023-03-03T02:53:54.474Z,21.48
2023-03-03T02:57:57.785Z,21.92
2023-03-03T03:02:02.396Z,25.85
2023-03-03T03:06:05.941Z,22.20
2023-03-03T03:10:10.156Z,20.08
2023-03-03T03:14:15.443Z,22.75
2023-03-03T03:18:20.763Z,20.58
2023-03-03T03:22:24.075Z,23.92
2023-03-03T03:26:27.591Z,20.80
2023-03-03T03:30:31.198Z,23.92
2023-03-03T03:34:36.225Z,20.25
2023-03-03T03:38:40.078Z,20.42
2023-03-03T03:42:43.414Z,20.10
2023-03-03T03:46:46.871Z,18.67
2023-03-03T03:50:52.129Z,19.65
2023-03-03T03:54:55.730Z,19.35
2023-03-03T03:58:58.970Z,21.48
2023-03-03T04:03:02.572Z,17.88
2023-03-03T04:07:07.378Z,19.58
2023-03-03T04:11:11.056Z,23.27
2023-03-03T04:15:15.430Z,19.65
2023-03-03T04:19:18.952Z,20.35
2023-03-03T04:23:23.802Z,19.58
2023-03-03T04:31:29.900Z,27.35
2023-03-03T04:35:35.391Z,19.42
2023-03-03T04:39:40.471Z,20.02
2023-03-03T04:43:43.677Z,20.38
2023-03-03T04:47:46.939Z,19.75
2023-03-03T04:51:50.526Z,18.25
2023-03-03T04:55:55.216Z,24.92
2023-03-03T04:59:58.595Z,17.75
2023-03-03T05:04:02.132Z,23.38
2023-03-03T05:08:05.741Z,18.48
2023-03-03T05:12:10.899Z,18.10
2023-03-03T05:16:16.925Z,17.80
2023-03-03T05:20:20.327Z,16.88
2023-03-03T05:24:24.075Z,18.40
2023-03-03T05:28:28.838Z,17.52
2023-03-03T05:32:32.296Z,21.35
2023-03-03T05:36:35.458Z,16.92
2023-03-03T05:40:39.492Z,18.85
2023-03-03T05:44:44.391Z,21.38
2023-03-03T05:48:48.279Z,19.77
2023-03-03T05:52:51.506Z,19.77
2023-03-03T05:56:54.913Z,18.77
2023-03-03T06:00:59.375Z,19.02
2023-03-03T06:05:02.928Z,19.38
2023-03-03T06:09:06.398Z,26.00
2023-03-03T06:13:09.983Z,21.52
2023-03-03T06:17:14.377Z,34.65
2023-03-03T06:21:17.156Z,31.98
2023-03-03T06:25:19.937Z,27.08
2023-03-03T06:29:22.775Z,28.13
2023-03-03T06:33:27.080Z,20.58
2023-03-03T06:37:29.864Z,23.70
2023-03-03T06:41:32.563Z,23.67
2023-03-03T06:45:35.489Z,27.85
2023-03-03T06:49:39.922Z,25.45
2023-03-03T06:53:42.627Z,29.63
2023-03-03T06:57:45.460Z,30.60
2023-03-03T07:01:49.839Z,41.20
2023-03-03T07:05:54.081Z,29.75
2023-03-03T07:09:57.932Z,27.85
2023-03-03T07:14:00.675Z,46.13
2023-03-03T07:18:04.645Z,32.22
2023-03-03T07:22:15.924Z,50.08
2023-03-03T07:26:20.844Z,56.45
2023-03-03T07:30:28.431Z,51.22
2023-03-03T07:34:38.188Z,43.40
2023-03-03T07:38:44.192Z,40.90
2023-03-03T07:42:47.051Z,53.88
2023-03-03T07:46:50.617Z,52.67
2023-03-03T07:50:53.667Z,63.72
2023-03-03T07:55:00.474Z,54.40
2023-03-03T07:59:04.858Z,55.75
2023-03-03T08:03:13.784Z,42.00
2023-03-03T08:07:18.835Z,42.53
2023-03-03T08:11:23.221Z,46.30
2023-03-03T08:15:27.910Z,50.78
2023-03-03T08:19:32.128Z,46.58
2023-03-03T08:23:34.874Z,46.38
2023-03-03T08:27:39.254Z,43.45
2023-03-03T08:31:42.367Z,34.15
2023-03-03T08:35:45.481Z,41.30
2023-03-03T08:39:48.314Z,42.42
2023-03-03T08:43:52.524Z,28.15
2023-03-03T08:47:56.184Z,27.55
2023-03-03T08:52:00.821Z,30.70
2023-03-03T08:56:03.810Z,36.40
2023-03-03T09:00:10.576Z,26.30
2023-03-03T09:04:13.554Z,22.92
2023-03-03T09:08:17.026Z,26.77
2023-03-03T09:12:21.899Z,27.60
2023-03-03T09:16:29.575Z,30.65
2023-03-03T09:20:36.157Z,27.27
2023-03-03T09:24:39.520Z,25.15
2023-03-03T09:28:48.154Z,24.98
2023-03-03T09:32:55.766Z,26.55
2023-03-03T09:37:00.275Z,26.88
2023-03-03T09:41:36.036Z,25.60
2023-03-03T09:45:53.506Z,20.80
2023-03-03T09:50:06.209Z,26.30
2023-03-03T09:54:28.726Z,27.80
2023-03-03T10:03:19.718Z,26.63
2023-03-03T10:07:37.990Z,23.05
2023-03-03T10:11:48.699Z,23.80
2023-03-03T10:16:00.873Z,24.15
2023-03-03T10:20:19.616Z,20.70
2023-03-03T10:24:33.507Z,22.45
2023-03-03T10:28:57.600Z,21.77
2023-03-03T10:33:03.713Z,27.25
2023-03-03T10:37:13.851Z,24.67
2023-03-03T10:41:28.444Z,22.25
2023-03-03T10:45:49.415Z,23.80
2023-03-03T10:49:57.938Z,24.55
2023-03-03T10:54:11.367Z,21.52
2023-03-03T10:58:48.776Z,24.00
2023-03-03T11:03:18.750Z,25.48
2023-03-03T11:07:25.834Z,25.85
2023-03-03T11:11:36.742Z,26.05
2023-03-03T11:16:03.442Z,23.02
2023-03-03T11:20:13.725Z,27.63
2023-03-03T11:24:43.517Z,21.98
2023-03-03T11:28:58.567Z,25.42
2023-03-03T11:33:06.078Z,24.42
2023-03-03T11:37:12.898Z,22.15
2023-03-03T11:41:27.983Z,24.70
2023-03-03T11:45:38.232Z,20.85
2023-03-03T11:49:52.812Z,20.63
2023-03-03T11:54:00.749Z,23.10
2023-03-03T11:58:13.839Z,23.63
2023-03-03T12:02:28.706Z,21.00
2023-03-03T12:06:43.107Z,24.85
2023-03-03T12:10:51.005Z,24.33
2023-03-03T12:15:07.500Z,23.27
2023-03-03T12:19:36.079Z,19.83
2023-03-03T12:23:52.536Z,24.55
2023-03-03T12:28:01.283Z,22.00
2023-03-03T12:32:15.409Z,23.92
2023-03-03T12:36:31.968Z,24.95
2023-03-03T12:40:38.853Z,24.38
2023-03-03T12:44:47.530Z,21.38
2023-03-03T12:48:51.021Z,24.13
2023-03-03T12:53:09.934Z,21.65
2023-03-03T12:57:27.399Z,20.15
2023-03-03T13:01:39.800Z,21.85
2023-03-03T13:05:52.304Z,18.13
2023-03-03T13:10:06.227Z,19.90
2023-03-03T13:14:21.096Z,17.90
2023-03-03T13:18:36.293Z,23.17
2023-03-03T13:22:42.162Z,25.90
2023-03-03T13:26:50.980Z,27.83
2023-03-03T13:30:59.933Z,17.90
2023-03-03T13:35:08.867Z,19.15
2023-03-03T13:39:21.073Z,17.63
2023-03-03T13:43:30.909Z,20.17
2023-03-03T13:47:44.861Z,21.85
2023-03-03T13:51:59.126Z,20.17
2023-03-03T13:56:10.361Z,18.27
2023-03-03T14:00:36.843Z,22.85
2023-03-03T14:04:52.195Z,31.02
2023-03-03T14:09:12.382Z,21.33
2023-03-03T14:13:26.275Z,18.35
2023-03-03T14:17:36.525Z,20.00
2023-03-03T14:21:47.635Z,22.50
2023-03-03T14:26:11.172Z,20.88
2023-03-03T14:30:34.443Z,22.48
2023-03-03T14:34:42.445Z,27.02
2023-03-03T14:38:52.926Z,17.90
2023-03-03T14:42:58.293Z,19.90
2023-03-03T14:47:22.308Z,17.92
2023-03-03T14:51:28.041Z,20.55
2023-03-03T14:55:38.405Z,19.95
2023-03-03T14:59:42.403Z,18.35
2023-03-03T15:03:52.974Z,20.30
2023-03-03T15:07:59.169Z,20.15
2023-03-03T15:12:06.165Z,19.27
2023-03-03T15:16:17.391Z,21.65
2023-03-03T15:20:32.783Z,26.23
2023-03-03T15:24:43.189Z,21.35
2023-03-03T15:28:59.584Z,20.92
2023-03-03T15:33:09.557Z,18.00
2023-03-03T15:41:33.343Z,20.60
2023-03-03T15:45:45.009Z,23.42
2023-03-03T15:50:12.905Z,19.98
2023-03-03T15:54:33.330Z,20.52
2023-03-03T15:58:53.564Z,18.67
2023-03-03T16:03:01.182Z,16.50
2023-03-03T16:07:08.494Z,17.27
2023-03-03T16:11:15.932Z,14.90
2023-03-03T16:15:41.134Z,16.20
2023-03-03T16:19:53.342Z,18.48
2023-03-03T16:23:58.385Z,15.52
2023-03-03T16:28:07.513Z,17.40
2023-03-03T16:32:13.706Z,15.13
2023-03-03T16:36:27.881Z,19.08
2023-03-03T16:40:33.724Z,17.80
2023-03-03T16:44:41.902Z,17.83
2023-03-03T16:48:49.514Z,17.25
2023-03-03T16:52:57.002Z,19.63
2023-03-03T16:57:09.534Z,28.25
2023-03-03T17:01:18.858Z,29.77
2023-03-03T17:05:28.461Z,29.85
2023-03-03T17:09:58.979Z,28.25
2023-03-03T17:14:15.053Z,36.15
2023-03-03T17:18:25.648Z,34.75
2023-03-03T17:22:35.584Z,31.70
2023-03-03T17:26:52.061Z,33.65
2023-03-03T17:30:59.650Z,35.50
2023-03-03T17:35:22.904Z,35.45
2023-03-03T17:39:42.174Z,39.45
2023-03-03T17:43:52.818Z,37.20
2023-03-03T17:48:08.505Z,36.22
2023-03-03T17:52:27.742Z,40.03
2023-03-03T17:56:36.644Z,31.75
2023-03-03T18:00:52.006Z,39.25
2023-03-03T18:05:37.313Z,36.33
2023-03-03T18:09:54.538Z,37.40
2023-03-03T18:14:26.664Z,38.08
2023-03-03T18:18:43.192Z,36.03
2023-03-03T18:22:48.516Z,36.13
2023-03-03T18:26:52.039Z,35.63
2023-03-03T18:30:58.395Z,35.75
2023-03-03T18:35:26.506Z,36.67
2023-03-03T18:39:45.729Z,33.67
2023-03-03T18:43:56.031Z,32.47
2023-03-03T18:48:05.639Z,32.35
2023-03-03T18:52:25.802Z,33.22
2023-03-03T18:56:44.430Z,34.05
2023-03-03T19:00:49.262Z,33.70
2023-03-03T19:04:55.651Z,38.53
2023-03-03T19:09:00.770Z,38.00
2023-03-03T19:13:04.167Z,35.55
2023-03-03T19:17:40.424Z,40.15
2023-03-03T19:21:54.387Z,37.97
2023-03-03T19:26:21.956Z,36.10
2023-03-03T19:30:44.415Z,38.75
2023-03-03T19:34:50.121Z,37.72
2023-03-03T19:39:02.663Z,38.80
2023-03-03T19:43:13.677Z,44.55
2023-03-03T19:47:26.513Z,38.53
2023-03-03T19:51:35.873Z,43.63
2023-03-03T19:55:46.349Z,39.28
2023-03-03T19:59:54.232Z,41.80
2023-03-03T20:04:23.015Z,38.28
2023-03-03T20:08:30.913Z,41.95
2023-03-03T20:12:43.762Z,39.70
2023-03-03T20:16:50.428Z,36.83
2023-03-03T20:21:02.098Z,33.85
2023-03-03T20:25:14.674Z,41.38
2023-03-03T20:29:31.548Z,47.75
2023-03-03T20:37:52.221Z,43.70
2023-03-03T20:42:06.224Z,45.65
2023-03-03T20:46:14.413Z,45.55
2023-03-03T20:50:25.936Z,38.97
2023-03-03T20:54:34.694Z,34.72
2023-03-03T20:58:48.553Z,41.30
2023-03-03T21:03:00.013Z,42.95
2023-03-03T21:07:05.369Z,41.10
2023-03-03T21:11:08.983Z,43.13
2023-03-03T21:15:25.066Z,38.20
2023-03-03T21:19:30.212Z,54.13
2023-03-03T21:23:35.064Z,58.13
2023-03-03T21:27:38.596Z,54.53
2023-03-03T21:31:48.930Z,47.17
2023-03-03T21:36:02.273Z,49.63
2023-03-03T21:40:21.088Z,50.58
2023-03-03T21:44:41.463Z,56.60
2023-03-03T21:48:44.802Z,43.67
2023-03-03T21:52:48.271Z,49.20
2023-03-03T21:56:53.271Z,51.72
2023-03-03T22:00:56.734Z,43.35
2023-03-03T22:05:00.244Z,47.10
2023-03-03T22:09:03.805Z,48.15
2023-03-03T22:13:08.661Z,50.45
2023-03-03T22:17:11.943Z,60.38
2023-03-03T22:21:15.635Z,57.53
2023-03-03T22:25:19.221Z,50.42
2023-03-03T22:29:23.999Z,65.97
2023-03-03T22:33:27.620Z,44.60
2023-03-03T22:37:32.190Z,58.25
2023-03-03T22:41:35.590Z,55.65
2023-03-03T22:45:40.705Z,58.63
2023-03-03T22:49:43.896Z,93.72
2023-03-03T22:53:47.288Z,69.97
2023-03-03T22:57:50.555Z,72.30
2023-03-03T23:01:56.289Z,72.70
2023-03-03T23:05:59.672Z,78.32
2023-03-03T23:10:02.917Z,70.88
2023-03-03T23:14:06.380Z,70.95
2023-03-03T23:18:11.228Z,72.15
2023-03-03T23:22:14.686Z,62.40
2023-03-03T23:26:18.191Z,50.85
2023-03-03T23:30:22.649Z,77.47
2023-03-03T23:34:27.224Z,64.63
2023-03-03T23:38:30.462Z,64.30
2023-03-03T23:42:33.646Z,30.77
2023-03-03T23:46:38.172Z,69.63
2023-03-03T23:50:42.882Z,75.80
2023-03-03T23:58:49.419Z,77.90
